createdAt,value
2018-08-20T00:00:51.253Z,31.8
2018-08-20T00:01:52.866Z,30.8
2018-08-20T00:02:54.328Z,31.8
2018-08-20T00:03:55.667Z,30.8
2018-08-20T00:04:57.263Z,31.3
2018-08-20T00:05:58.535Z,31.8
2018-08-20T00:07:00.028Z,30.8
2018-08-20T00:08:01.325Z,30.3
2018-08-20T00:09:02.935Z,30.3
2018-08-20T00:10:04.574Z,30.8
2018-08-20T00:11:06.042Z,31.3
2018-08-20T00:12:07.650Z,31.3
2018-08-20T00:13:09.256Z,31.3
2018-08-20T00:14:10.901Z,30.3
2018-08-20T00:15:12.498Z,31.3
2018-08-20T00:16:14.092Z,31.3
2018-08-20T00:17:15.675Z,31.3
2018-08-20T00:18:17.133Z,30.8
2018-08-20T00:19:18.732Z,30.8
2018-08-20T00:20:20.177Z,30.3
2018-08-20T00:21:21.780Z,31.8
2018-08-20T00:22:23.396Z,31.3
2018-08-20T00:23:24.670Z,30.8
2018-08-20T00:24:26.324Z,30.8
2018-08-20T00:25:27.949Z,30.3
2018-08-20T00:26:29.573Z,30.8
2018-08-20T00:27:31.180Z,30.8
2018-08-20T00:28:32.605Z,30.3
2018-08-20T00:29:34.064Z,31.8
2018-08-20T00:30:35.659Z,29.8
2018-08-20T00:31:37.086Z,30.8
2018-08-20T00:32:38.544Z,30.3
2018-08-20T00:33:39.667Z,31.3
2018-08-20T00:34:41.086Z,30.8
2018-08-20T00:35:42.542Z,30.3
2018-08-20T00:36:43.817Z,30.8
2018-08-20T00:37:45.247Z,30.8
2018-08-20T00:38:46.840Z,30.8
2018-08-20T00:39:48.446Z,30.3
2018-08-20T00:40:49.930Z,30.3
2018-08-20T00:41:51.358Z,30.8
2018-08-20T00:42:52.476Z,30.8
2018-08-20T00:43:53.915Z,30.8
2018-08-20T00:44:55.515Z,30.3
2018-08-20T00:45:56.955Z,30.3
2018-08-20T00:46:58.566Z,29.8
2018-08-20T00:48:00.156Z,30.8
2018-08-20T00:49:01.764Z,30.8
2018-08-20T00:50:03.369Z,29.8
2018-08-20T00:51:04.950Z,30.8
2018-08-20T00:52:06.389Z,29.8
2018-08-20T00:53:08.003Z,30.8
2018-08-20T00:54:09.597Z,30.8
2018-08-20T00:55:11.209Z,30.3
2018-08-20T00:56:12.812Z,30.8
2018-08-20T00:57:14.415Z,30.8
2018-08-20T00:58:16.014Z,30.8
2018-08-20T00:59:17.636Z,30.3
2018-08-20T01:00:19.240Z,30.8
2018-08-20T01:01:20.834Z,30.3
2018-08-20T01:02:21.784Z,29.8
2018-08-20T01:03:23.208Z,30.3
2018-08-20T01:04:24.648Z,30.3
2018-08-20T01:05:26.128Z,30.3
2018-08-20T01:06:27.739Z,30.8
2018-08-20T01:07:29.168Z,30.8
2018-08-20T01:08:30.780Z,30.3
2018-08-20T01:09:32.379Z,30.3
2018-08-20T01:10:33.805Z,30.3
2018-08-20T01:11:35.092Z,30.3
2018-08-20T01:12:36.705Z,30.3
2018-08-20T01:13:38.141Z,30.8
2018-08-20T01:14:39.423Z,30.3
2018-08-20T01:15:41.016Z,30.8
2018-08-20T01:16:42.297Z,30.8
2018-08-20T01:17:43.562Z,30.8
2018-08-20T01:18:45.158Z,30.3
2018-08-20T01:19:46.831Z,30.8
2018-08-20T01:20:48.264Z,29.8
2018-08-20T01:21:49.704Z,30.8
2018-08-20T01:22:51.299Z,29.8
2018-08-20T01:23:52.882Z,30.3
2018-08-20T01:24:54.545Z,29.8
2018-08-20T01:25:56.000Z,30.3
2018-08-20T01:26:57.609Z,30.3
2018-08-20T01:27:59.200Z,29.3
2018-08-20T01:29:00.631Z,30.8
2018-08-20T01:30:02.085Z,30.8
2018-08-20T01:31:03.537Z,30.3
2018-08-20T01:32:04.986Z,30.3
2018-08-20T01:33:06.251Z,30.8
2018-08-20T01:34:07.728Z,30.8
2018-08-20T01:35:08.999Z,30.8
2018-08-20T01:36:10.635Z,30.8
2018-08-20T01:37:12.229Z,30.8
2018-08-20T01:38:13.834Z,31.3
2018-08-20T01:39:15.267Z,30.8
2018-08-20T01:40:16.709Z,31.3
2018-08-20T01:41:18.339Z,31.8
2018-08-20T01:42:20.196Z,31.3
2018-08-20T01:43:21.131Z,30.8
2018-08-20T01:44:22.734Z,31.3
2018-08-20T01:45:24.325Z,31.3
2018-08-20T01:46:25.603Z,31.8
2018-08-20T01:47:27.235Z,31.3
2018-08-20T01:48:28.858Z,31.3
2018-08-20T01:49:30.306Z,31.8
2018-08-20T01:50:31.946Z,31.3
2018-08-20T01:51:33.567Z,31.3
2018-08-20T01:52:34.996Z,32.3
2018-08-20T01:53:36.624Z,31.3
2018-08-20T01:54:38.229Z,31.8
2018-08-20T01:55:39.486Z,31.8
2018-08-20T01:56:40.938Z,32.3
2018-08-20T01:57:42.526Z,32.7
2018-08-20T01:58:44.115Z,31.3
2018-08-20T01:59:45.704Z,32.3
2018-08-20T02:00:47.298Z,31.3
2018-08-20T02:01:48.740Z,32.3
2018-08-20T02:02:50.034Z,32.7
2018-08-20T02:03:51.315Z,32.7
2018-08-20T02:04:52.755Z,32.3
2018-08-20T02:05:53.861Z,31.8
2018-08-20T02:06:54.959Z,32.3
2018-08-20T02:07:56.418Z,32.7
2018-08-20T02:08:57.845Z,32.7
2018-08-20T02:09:59.264Z,32.3
2018-08-20T02:11:00.710Z,32.7
2018-08-20T02:12:02.005Z,32.7
2018-08-20T02:13:03.105Z,32.3
2018-08-20T02:14:04.710Z,32.7
2018-08-20T02:15:05.969Z,32.3
2018-08-20T02:16:07.232Z,32.7
2018-08-20T02:17:08.692Z,32.7
2018-08-20T02:18:10.122Z,31.8
2018-08-20T02:19:11.237Z,32.7
2018-08-20T02:20:12.687Z,32.3
2018-08-20T02:21:14.134Z,32.7
2018-08-20T02:22:15.749Z,33.2
2018-08-20T02:23:17.354Z,32.7
2018-08-20T02:24:18.625Z,32.3
2018-08-20T02:25:20.241Z,32.7
2018-08-20T02:26:21.525Z,33.2
2018-08-20T02:27:22.665Z,32.7
2018-08-20T02:28:23.938Z,31.8
2018-08-20T02:29:25.239Z,32.7
2018-08-20T02:30:26.825Z,31.8
2018-08-20T02:31:28.410Z,32.3
2018-08-20T02:32:29.846Z,32.3
2018-08-20T02:33:31.473Z,32.3
2018-08-20T02:34:33.071Z,32.7
2018-08-20T02:35:34.487Z,32.7
2018-08-20T02:36:36.095Z,32.3
2018-08-20T02:37:37.729Z,32.7
2018-08-20T02:38:39.327Z,32.3
2018-08-20T02:39:40.918Z,31.8
2018-08-20T02:40:42.530Z,32.3
2018-08-20T02:41:43.981Z,32.3
2018-08-20T02:42:45.590Z,32.3
2018-08-20T02:43:47.032Z,31.8
2018-08-20T02:44:48.475Z,32.7
2018-08-20T02:45:49.906Z,32.3
2018-08-20T02:46:51.354Z,32.7
2018-08-20T02:47:52.969Z,32.3
2018-08-20T02:48:54.592Z,32.3
2018-08-20T02:49:56.200Z,32.3
2018-08-20T02:50:57.809Z,32.7
2018-08-20T02:51:59.400Z,31.8
2018-08-20T02:53:01.016Z,32.7
2018-08-20T02:54:02.619Z,31.8
2018-08-20T02:55:04.089Z,32.7
2018-08-20T02:56:05.518Z,31.8
2018-08-20T02:57:06.798Z,31.8
2018-08-20T02:58:08.245Z,31.8
2018-08-20T02:59:09.854Z,32.3
2018-08-20T03:00:11.444Z,32.3
2018-08-20T03:01:12.877Z,32.7
2018-08-20T03:02:14.493Z,31.8
2018-08-20T03:03:15.789Z,31.3
2018-08-20T03:04:17.416Z,31.8
2018-08-20T03:05:19.056Z,31.8
2018-08-20T03:06:20.505Z,32.3
2018-08-20T03:07:22.098Z,31.3
2018-08-20T03:08:23.524Z,31.8
2018-08-20T03:09:25.123Z,31.8
2018-08-20T03:10:26.729Z,31.3
2018-08-20T03:11:28.038Z,31.8
2018-08-20T03:12:29.483Z,32.3
2018-08-20T03:13:30.975Z,31.8
2018-08-20T03:14:32.430Z,31.8
2018-08-20T03:15:33.852Z,31.3
2018-08-20T03:16:35.285Z,31.8
2018-08-20T03:17:36.741Z,32.3
2018-08-20T03:18:38.186Z,31.8
2018-08-20T03:19:39.807Z,31.8
2018-08-20T03:20:41.410Z,31.3
2018-08-20T03:21:42.700Z,31.3
2018-08-20T03:22:44.325Z,32.3
2018-08-20T03:23:45.929Z,31.3
2018-08-20T03:24:47.208Z,31.8
2018-08-20T03:25:48.811Z,30.8
2018-08-20T03:26:50.249Z,31.8
2018-08-20T03:27:51.836Z,30.8
2018-08-20T03:28:53.469Z,31.8
2018-08-20T03:29:55.073Z,30.8
2018-08-20T03:30:56.507Z,31.3
2018-08-20T03:31:57.779Z,31.3
2018-08-20T03:32:59.253Z,31.3
2018-08-20T03:34:00.873Z,30.8
2018-08-20T03:35:02.376Z,31.8
2018-08-20T03:36:03.649Z,31.3
2018-08-20T03:37:05.267Z,31.3
2018-08-20T03:38:06.732Z,31.8
2018-08-20T03:39:08.012Z,31.8
2018-08-20T03:40:09.642Z,31.3
2018-08-20T03:41:10.914Z,31.8
2018-08-20T03:42:12.525Z,31.3
2018-08-20T03:43:14.135Z,31.8
2018-08-20T03:44:15.753Z,31.3
2018-08-20T03:45:17.344Z,31.3
2018-08-20T03:46:18.945Z,31.3
2018-08-20T03:47:20.536Z,31.3
2018-08-20T03:48:22.158Z,31.3
2018-08-20T03:49:23.598Z,31.8
2018-08-20T03:50:25.199Z,31.8
2018-08-20T03:51:26.646Z,31.8
2018-08-20T03:52:28.250Z,32.3
2018-08-20T03:53:29.695Z,32.3
2018-08-20T03:54:31.296Z,32.3
2018-08-20T03:55:32.730Z,32.7
2018-08-20T03:56:34.334Z,32.3
2018-08-20T03:57:35.767Z,31.8
2018-08-20T03:58:37.522Z,32.7
2018-08-20T03:59:38.977Z,31.8
2018-08-20T04:00:40.626Z,32.3
2018-08-20T04:01:41.930Z,32.7
2018-08-20T04:02:43.259Z,32.7
2018-08-20T04:03:44.385Z,32.7
2018-08-20T04:04:45.857Z,32.7
2018-08-20T04:05:47.315Z,33.2
2018-08-20T04:06:48.936Z,32.7
2018-08-20T04:07:50.368Z,32.3
2018-08-20T04:08:51.827Z,32.3
2018-08-20T04:09:53.464Z,32.7
2018-08-20T04:10:55.075Z,32.3
2018-08-20T04:11:56.777Z,31.8
2018-08-20T04:12:58.068Z,32.3
2018-08-20T04:13:59.335Z,32.3
2018-08-20T04:15:00.623Z,32.7
2018-08-20T04:16:02.074Z,32.7
2018-08-20T04:17:03.526Z,32.7
2018-08-20T04:18:05.121Z,32.7
2018-08-20T04:19:06.715Z,32.7
2018-08-20T04:20:08.172Z,32.3
2018-08-20T04:21:09.277Z,32.7
2018-08-20T04:22:10.714Z,32.7
2018-08-20T04:23:12.327Z,32.7
2018-08-20T04:24:13.784Z,32.3
2018-08-20T04:25:15.234Z,32.3
2018-08-20T04:26:16.836Z,31.8
2018-08-20T04:27:18.427Z,32.7
2018-08-20T04:28:20.066Z,32.7
2018-08-20T04:29:21.658Z,32.3
2018-08-20T04:30:23.245Z,32.7
2018-08-20T04:31:24.895Z,31.8
2018-08-20T04:32:26.356Z,32.3
2018-08-20T04:33:28.017Z,32.7
2018-08-20T04:34:29.297Z,32.7
2018-08-20T04:35:30.914Z,32.3
2018-08-20T04:36:32.838Z,32.7
2018-08-20T04:37:34.691Z,32.7
2018-08-20T04:38:35.964Z,32.3
2018-08-20T04:39:37.278Z,32.3
2018-08-20T04:40:38.885Z,32.3
2018-08-20T04:41:40.338Z,32.3
2018-08-20T04:42:41.942Z,32.3
2018-08-20T04:43:43.378Z,32.3
2018-08-20T04:44:44.982Z,32.3
2018-08-20T04:45:46.256Z,32.7
2018-08-20T04:46:47.876Z,32.7
2018-08-20T04:47:49.494Z,32.3
2018-08-20T04:48:51.112Z,32.7
2018-08-20T04:49:53.134Z,32.3
2018-08-20T04:50:55.844Z,31.8
2018-08-20T04:51:57.681Z,31.8
2018-08-20T04:52:59.123Z,31.8
2018-08-20T04:54:00.398Z,32.7
2018-08-20T04:55:02.054Z,32.3
2018-08-20T04:56:03.688Z,31.8
2018-08-20T04:57:05.128Z,32.7
2018-08-20T04:58:06.583Z,32.3
2018-08-20T04:59:08.039Z,32.3
2018-08-20T05:00:09.670Z,31.3
2018-08-20T05:01:11.105Z,32.3
2018-08-20T05:02:12.589Z,32.3
2018-08-20T05:03:14.206Z,31.8
2018-08-20T05:04:15.827Z,31.8
2018-08-20T05:05:17.454Z,31.8
2018-08-20T05:06:19.064Z,32.7
2018-08-20T05:07:20.504Z,31.8
2018-08-20T05:08:22.114Z,31.3
2018-08-20T05:09:23.564Z,32.3
2018-08-20T05:10:25.211Z,31.8
2018-08-20T05:11:26.833Z,31.3
2018-08-20T05:12:28.445Z,32.3
2018-08-20T05:13:30.046Z,31.8
2018-08-20T05:14:31.643Z,31.3
2018-08-20T05:15:33.271Z,31.3
2018-08-20T05:16:34.704Z,32.3
2018-08-20T05:17:36.152Z,31.8
2018-08-20T05:18:37.589Z,31.8
2018-08-20T05:19:38.850Z,31.8
2018-08-20T05:20:40.443Z,31.3
2018-08-20T05:21:41.888Z,31.3
2018-08-20T05:22:43.522Z,31.8
2018-08-20T05:23:44.967Z,30.8
2018-08-20T05:24:46.574Z,31.3
2018-08-20T05:25:48.020Z,31.8
2018-08-20T05:26:49.768Z,31.3
2018-08-20T05:27:51.398Z,31.3
2018-08-20T05:28:52.693Z,31.8
2018-08-20T05:29:54.001Z,30.8
2018-08-20T05:30:55.616Z,31.3
2018-08-20T05:31:57.220Z,31.3
2018-08-20T05:32:58.331Z,31.3
2018-08-20T05:33:59.789Z,30.8
2018-08-20T05:35:01.071Z,31.3
2018-08-20T05:36:02.525Z,30.8
2018-08-20T05:37:03.808Z,30.8
2018-08-20T05:38:05.271Z,31.3
2018-08-20T05:39:06.717Z,31.8
2018-08-20T05:40:08.324Z,30.8
2018-08-20T05:41:09.944Z,31.3
2018-08-20T05:42:11.217Z,31.3
2018-08-20T05:43:13.053Z,31.8
2018-08-20T05:44:14.667Z,31.8
2018-08-20T05:45:16.265Z,31.3
2018-08-20T05:46:17.707Z,32.3
2018-08-20T05:47:19.314Z,31.8
2018-08-20T05:48:20.942Z,31.3
2018-08-20T05:49:22.383Z,31.3
2018-08-20T05:50:24.000Z,31.3
2018-08-20T05:51:25.275Z,32.3
2018-08-20T05:52:26.711Z,31.8
2018-08-20T05:53:28.173Z,32.3
2018-08-20T05:54:29.609Z,31.3
2018-08-20T05:55:30.885Z,31.8
2018-08-20T05:56:32.310Z,31.8
2018-08-20T05:57:33.894Z,31.8
2018-08-20T05:58:35.510Z,32.3
2018-08-20T05:59:36.784Z,32.7
2018-08-20T06:00:38.392Z,31.8
2018-08-20T06:01:39.822Z,32.7
2018-08-20T06:02:41.280Z,32.3
2018-08-20T06:03:42.711Z,32.3
2018-08-20T06:04:44.350Z,32.7
2018-08-20T06:05:45.789Z,32.3
2018-08-20T06:06:47.235Z,32.7
2018-08-20T06:07:49.019Z,31.8
2018-08-20T06:08:50.478Z,32.7
2018-08-20T06:09:51.937Z,32.3
2018-08-20T06:10:53.567Z,31.8
2018-08-20T06:11:55.012Z,32.7
2018-08-20T06:12:56.489Z,32.3
2018-08-20T06:13:58.131Z,32.7
2018-08-20T06:14:59.566Z,32.3
2018-08-20T06:16:01.210Z,32.3
2018-08-20T06:17:02.857Z,32.3
2018-08-20T06:18:04.308Z,32.3
2018-08-20T06:19:05.930Z,32.7
2018-08-20T06:20:07.552Z,32.7
2018-08-20T06:21:08.982Z,32.7
2018-08-20T06:22:10.606Z,32.7
2018-08-20T06:23:12.059Z,32.7
2018-08-20T06:24:13.685Z,32.3
2018-08-20T06:25:15.509Z,32.3
2018-08-20T06:26:17.263Z,31.8
2018-08-20T06:27:18.939Z,32.3
2018-08-20T06:28:20.715Z,32.7
2018-08-20T06:29:22.442Z,32.3
2018-08-20T06:30:24.103Z,32.3
2018-08-20T06:31:25.756Z,32.7
2018-08-20T06:32:27.206Z,32.3
2018-08-20T06:33:28.636Z,32.3
2018-08-20T06:34:30.250Z,32.3
2018-08-20T06:35:31.849Z,31.8
2018-08-20T06:36:33.442Z,32.3
2018-08-20T06:37:34.892Z,32.3
2018-08-20T06:38:36.540Z,31.8
2018-08-20T06:39:37.978Z,31.8
2018-08-20T06:40:39.404Z,31.8
2018-08-20T06:41:41.470Z,32.3
2018-08-20T06:42:43.350Z,32.3
2018-08-20T06:43:44.971Z,31.8
2018-08-20T06:44:46.247Z,32.3
2018-08-20T06:45:47.686Z,32.3
2018-08-20T06:46:49.118Z,32.3
2018-08-20T06:47:50.559Z,31.3
2018-08-20T06:48:52.162Z,32.3
2018-08-20T06:49:53.780Z,32.7
2018-08-20T06:50:55.400Z,31.3
2018-08-20T06:51:56.680Z,31.8
2018-08-20T06:52:58.295Z,31.8
2018-08-20T06:53:59.914Z,31.8
2018-08-20T06:55:01.526Z,32.3
2018-08-20T06:56:03.142Z,31.8
2018-08-20T06:57:04.741Z,31.8
2018-08-20T06:58:06.380Z,32.3
2018-08-20T06:59:08.066Z,32.3
2018-08-20T07:00:09.507Z,31.8
2018-08-20T07:01:11.124Z,31.8
2018-08-20T07:02:12.728Z,32.3
2018-08-20T07:03:14.342Z,32.3
2018-08-20T07:04:15.772Z,31.3
2018-08-20T07:05:17.226Z,31.8
2018-08-20T07:06:19.021Z,31.8
2018-08-20T07:07:20.702Z,31.3
2018-08-20T07:08:22.026Z,34.2
2018-08-20T07:09:23.635Z,35.7
2018-08-20T07:10:25.267Z,36.7
2018-08-20T07:11:26.739Z,36.2
2018-08-20T07:12:28.350Z,36.7
2018-08-20T07:13:29.986Z,36.2
2018-08-20T07:14:31.442Z,36.2
2018-08-20T07:15:33.077Z,36.2
2018-08-20T07:16:34.519Z,37.1
2018-08-20T07:17:36.237Z,36.7
2018-08-20T07:18:52.488Z,36.7
2018-08-20T07:19:53.960Z,36.2
2018-08-20T07:20:55.422Z,36.2
2018-08-20T07:21:57.028Z,36.2
2018-08-20T07:22:58.709Z,35.7
2018-08-20T07:24:00.542Z,35.7
2018-08-20T07:25:02.007Z,35.7
2018-08-20T07:26:03.546Z,35.2
2018-08-20T07:27:05.144Z,35.2
2018-08-20T07:28:06.755Z,35.7
2018-08-20T07:29:08.369Z,35.2
2018-08-20T07:30:09.813Z,34.7
2018-08-20T07:31:11.441Z,35.2
2018-08-20T07:32:12.887Z,34.2
2018-08-20T07:33:14.339Z,34.7
2018-08-20T07:34:15.787Z,35.2
2018-08-20T07:35:17.396Z,34.7
2018-08-20T07:36:19.014Z,35.2
2018-08-20T07:37:20.468Z,34.7
2018-08-20T07:38:21.752Z,35.2
2018-08-20T07:39:23.207Z,35.2
2018-08-20T07:40:24.856Z,34.7
2018-08-20T07:41:26.316Z,34.7
2018-08-20T07:42:28.355Z,35.2
2018-08-20T07:43:30.264Z,34.7
2018-08-20T07:44:31.722Z,34.7
2018-08-20T07:45:33.193Z,35.7
2018-08-20T07:46:34.789Z,34.2
2018-08-20T07:47:36.224Z,34.7
2018-08-20T07:48:37.356Z,34.7
2018-08-20T07:49:38.991Z,35.2
2018-08-20T07:50:40.434Z,35.2
2018-08-20T07:51:42.056Z,35.2
2018-08-20T07:52:43.722Z,34.7
2018-08-20T07:53:45.353Z,34.2
2018-08-20T07:54:47.026Z,35.7
2018-08-20T07:55:48.644Z,34.7
2018-08-20T07:56:50.300Z,35.2
2018-08-20T07:57:51.765Z,34.2
2018-08-20T07:58:53.387Z,35.2
2018-08-20T07:59:55.018Z,35.2
2018-08-20T08:00:56.161Z,35.2
2018-08-20T08:01:57.680Z,35.2
2018-08-20T08:02:59.291Z,34.2
2018-08-20T08:04:00.727Z,34.2
2018-08-20T08:05:02.183Z,34.7
2018-08-20T08:06:03.645Z,34.7
2018-08-20T08:07:05.105Z,34.7
2018-08-20T08:08:06.733Z,34.7
2018-08-20T08:09:08.357Z,34.2
2018-08-20T08:10:09.994Z,34.7
2018-08-20T08:11:11.626Z,34.2
2018-08-20T08:12:13.218Z,33.7
2018-08-20T08:13:14.678Z,34.2
2018-08-20T08:14:16.870Z,34.2
2018-08-20T08:15:18.537Z,34.2
2018-08-20T08:16:20.139Z,34.2
2018-08-20T08:17:21.587Z,34.7
2018-08-20T08:18:23.200Z,34.2
2018-08-20T08:19:24.657Z,35.2
2018-08-20T08:20:26.309Z,34.7
2018-08-20T08:21:27.911Z,33.7
2018-08-20T08:22:29.387Z,33.7
2018-08-20T08:23:30.833Z,34.2
2018-08-20T08:24:32.464Z,34.2
2018-08-20T08:25:33.924Z,34.2
2018-08-20T08:26:35.938Z,34.7
2018-08-20T08:27:37.407Z,34.2
2018-08-20T08:28:39.054Z,33.7
2018-08-20T08:29:40.654Z,34.2
2018-08-20T08:30:42.276Z,34.7
2018-08-20T08:31:43.901Z,34.2
2018-08-20T08:32:45.511Z,33.7
2018-08-20T08:33:46.778Z,34.2
2018-08-20T08:34:48.047Z,33.7
2018-08-20T08:35:49.341Z,33.7
2018-08-20T08:36:50.958Z,33.2
2018-08-20T08:37:52.449Z,33.7
2018-08-20T08:38:54.110Z,33.7
2018-08-20T08:39:55.729Z,33.7
2018-08-20T08:40:57.220Z,34.2
2018-08-20T08:41:58.889Z,34.2
2018-08-20T08:43:00.535Z,33.7
2018-08-20T08:44:02.158Z,33.7
2018-08-20T08:45:03.763Z,33.7
2018-08-20T08:46:05.219Z,33.2
2018-08-20T08:47:06.836Z,33.2
2018-08-20T08:48:08.116Z,33.2
2018-08-20T08:49:09.581Z,33.7
2018-08-20T08:50:10.867Z,33.7
2018-08-20T08:51:12.317Z,32.7
2018-08-20T08:52:13.941Z,33.7
2018-08-20T08:53:15.406Z,33.7
2018-08-20T08:54:16.854Z,33.7
2018-08-20T08:55:18.323Z,32.7
2018-08-20T08:56:19.930Z,33.2
2018-08-20T08:57:21.527Z,33.2
2018-08-20T08:58:23.026Z,33.2
2018-08-20T08:59:24.139Z,33.2
2018-08-20T09:00:26.017Z,33.2
2018-08-20T09:01:27.728Z,33.2
2018-08-20T09:02:29.202Z,33.2
2018-08-20T09:03:30.801Z,32.3
2018-08-20T09:04:32.449Z,33.2
2018-08-20T09:05:33.898Z,32.7
2018-08-20T09:06:35.491Z,33.2
2018-08-20T09:07:36.956Z,32.7
2018-08-20T09:08:38.437Z,32.3
2018-08-20T09:09:39.724Z,33.2
2018-08-20T09:10:41.010Z,32.7
2018-08-20T09:11:42.826Z,32.7
2018-08-20T09:12:44.442Z,33.2
2018-08-20T09:13:46.496Z,32.7
2018-08-20T09:14:47.930Z,33.2
2018-08-20T09:15:49.372Z,32.7
2018-08-20T09:16:50.821Z,32.7
2018-08-20T09:17:52.444Z,33.2
2018-08-20T09:18:54.062Z,32.7
2018-08-20T09:19:55.510Z,32.7
2018-08-20T09:20:57.119Z,33.2
2018-08-20T09:21:58.599Z,33.2
2018-08-20T09:23:00.046Z,33.7
2018-08-20T09:24:01.665Z,33.7
2018-08-20T09:25:03.267Z,32.7
2018-08-20T09:26:04.876Z,33.2
2018-08-20T09:27:06.315Z,33.2
2018-08-20T09:28:07.916Z,33.7
2018-08-20T09:29:09.376Z,33.2
2018-08-20T09:30:10.835Z,33.7
2018-08-20T09:31:12.272Z,33.7
2018-08-20T09:32:13.815Z,33.7
2018-08-20T09:33:15.520Z,33.7
2018-08-20T09:34:17.136Z,33.7
2018-08-20T09:35:18.585Z,33.7
2018-08-20T09:36:20.083Z,34.2
2018-08-20T09:37:21.710Z,34.2
2018-08-20T09:38:23.655Z,33.7
2018-08-20T09:39:25.566Z,34.2
2018-08-20T09:40:27.051Z,33.2
2018-08-20T09:41:28.507Z,33.7
2018-08-20T09:42:29.783Z,33.2
2018-08-20T09:43:31.235Z,33.7
2018-08-20T09:44:32.882Z,33.2
2018-08-20T09:45:34.178Z,33.7
2018-08-20T09:46:35.297Z,33.2
2018-08-20T09:47:36.740Z,33.2
2018-08-20T09:48:38.354Z,34.2
2018-08-20T09:49:39.775Z,33.2
2018-08-20T09:50:41.217Z,33.2
2018-08-20T09:51:42.823Z,33.7
2018-08-20T09:52:44.272Z,34.2
2018-08-20T09:53:45.886Z,33.7
2018-08-20T09:54:47.497Z,33.2
2018-08-20T09:55:49.097Z,33.2
2018-08-20T09:56:50.716Z,33.7
2018-08-20T09:57:52.324Z,32.7
2018-08-20T09:58:53.775Z,33.2
2018-08-20T09:59:55.206Z,33.7
2018-08-20T10:00:56.820Z,33.2
2018-08-20T10:01:58.270Z,33.7
2018-08-20T10:03:00.113Z,33.2
2018-08-20T10:04:01.581Z,33.2
2018-08-20T10:05:03.211Z,33.7
2018-08-20T10:06:04.844Z,33.2
2018-08-20T10:07:06.125Z,33.7
2018-08-20T10:08:07.579Z,33.7
2018-08-20T10:09:09.198Z,33.2
2018-08-20T10:10:10.810Z,33.2
2018-08-20T10:11:12.421Z,33.2
2018-08-20T10:12:13.886Z,33.2
2018-08-20T10:13:15.497Z,33.7
2018-08-20T10:14:16.937Z,33.2
2018-08-20T10:15:18.361Z,33.2
2018-08-20T10:16:19.649Z,32.3
2018-08-20T10:17:21.277Z,33.2
2018-08-20T10:18:22.759Z,32.7
2018-08-20T10:19:24.457Z,33.7
2018-08-20T10:20:25.898Z,32.7
2018-08-20T10:21:27.531Z,32.7
2018-08-20T10:22:29.001Z,33.7
2018-08-20T10:23:30.621Z,32.7
2018-08-20T10:24:32.411Z,33.2
2018-08-20T10:25:33.941Z,33.2
2018-08-20T10:26:35.557Z,32.3
2018-08-20T10:27:37.037Z,32.7
2018-08-20T10:28:38.310Z,33.2
2018-08-20T10:29:39.749Z,33.2
2018-08-20T10:30:41.206Z,33.2
2018-08-20T10:31:42.821Z,33.2
2018-08-20T10:32:44.420Z,33.2
2018-08-20T10:33:46.032Z,32.7
2018-08-20T10:34:47.495Z,32.3
2018-08-20T10:35:49.092Z,33.2
2018-08-20T10:36:50.543Z,32.7
2018-08-20T10:37:53.085Z,33.2
2018-08-20T10:38:55.193Z,33.2
2018-08-20T10:39:56.688Z,33.2
2018-08-20T10:40:58.319Z,32.3
2018-08-20T10:41:59.979Z,32.7
2018-08-20T10:43:01.594Z,33.2
2018-08-20T10:44:03.040Z,32.7
2018-08-20T10:45:04.655Z,32.3
2018-08-20T10:46:06.266Z,32.7
2018-08-20T10:47:07.914Z,32.7
2018-08-20T10:48:09.218Z,32.7
2018-08-20T10:49:10.847Z,32.7
2018-08-20T10:50:13.136Z,32.7
2018-08-20T10:51:14.895Z,32.3
2018-08-20T10:52:16.499Z,32.3
2018-08-20T10:53:18.128Z,32.7
2018-08-20T10:54:19.565Z,32.7
2018-08-20T10:55:21.180Z,31.8
2018-08-20T10:56:22.928Z,32.7
2018-08-20T10:57:24.718Z,32.3
2018-08-20T10:58:26.073Z,32.3
2018-08-20T10:59:27.696Z,32.3
2018-08-20T11:00:29.357Z,32.3
2018-08-20T11:01:30.796Z,32.3
2018-08-20T11:02:32.400Z,32.3
2018-08-20T11:03:34.016Z,31.8
2018-08-20T11:04:35.637Z,31.8
2018-08-20T11:05:37.082Z,32.7
2018-08-20T11:06:38.561Z,32.3
2018-08-20T11:07:40.013Z,32.7
2018-08-20T11:08:41.669Z,32.7
2018-08-20T11:09:43.324Z,32.3
2018-08-20T11:10:45.197Z,32.7
2018-08-20T11:11:46.699Z,32.7
2018-08-20T11:12:48.335Z,31.8
2018-08-20T11:13:49.792Z,32.3
2018-08-20T11:14:51.292Z,33.2
2018-08-20T11:15:52.749Z,32.7
2018-08-20T11:16:54.369Z,32.7
2018-08-20T11:17:55.836Z,32.7
2018-08-20T11:18:57.150Z,33.2
2018-08-20T11:19:58.779Z,32.7
2018-08-20T11:21:00.406Z,32.7
2018-08-20T11:22:16.370Z,32.7
2018-08-20T11:23:17.655Z,32.7
2018-08-20T11:24:19.309Z,32.7
2018-08-20T11:25:20.616Z,32.7
2018-08-20T11:26:22.241Z,32.7
2018-08-20T11:27:23.852Z,33.2
2018-08-20T11:28:25.477Z,32.7
2018-08-20T11:29:26.956Z,33.2
2018-08-20T11:30:28.414Z,33.2
2018-08-20T11:31:29.718Z,34.2
2018-08-20T11:32:31.310Z,33.2
2018-08-20T11:33:32.778Z,32.7
2018-08-20T11:34:34.235Z,33.2
2018-08-20T11:35:35.907Z,32.7
2018-08-20T11:36:37.951Z,33.7
2018-08-20T11:37:39.743Z,32.7
2018-08-20T11:38:41.353Z,33.7
2018-08-20T11:39:43.065Z,33.7
2018-08-20T11:40:44.699Z,33.7
2018-08-20T11:41:46.161Z,32.7
2018-08-20T11:42:47.805Z,33.7
2018-08-20T11:43:49.454Z,32.7
2018-08-20T11:44:50.749Z,33.2
2018-08-20T11:45:52.197Z,33.2
2018-08-20T11:46:53.652Z,33.7
2018-08-20T11:47:55.277Z,33.7
2018-08-20T11:48:56.951Z,33.7
2018-08-20T11:49:58.605Z,34.2
2018-08-20T11:50:59.887Z,33.2
2018-08-20T11:52:01.536Z,33.2
2018-08-20T11:53:03.209Z,32.7
2018-08-20T11:54:04.843Z,33.2
2018-08-20T11:55:06.478Z,33.2
2018-08-20T11:56:08.093Z,33.2
2018-08-20T11:57:09.705Z,33.7
2018-08-20T11:58:11.321Z,32.7
2018-08-20T11:59:12.935Z,32.7
2018-08-20T12:00:14.402Z,32.7
2018-08-20T12:01:16.023Z,33.7
2018-08-20T12:02:17.485Z,32.7
2018-08-20T12:03:18.955Z,33.2
2018-08-20T12:04:20.428Z,32.7
2018-08-20T12:05:22.035Z,33.2
2018-08-20T12:06:23.638Z,32.7
2018-08-20T12:07:25.864Z,33.2
2018-08-20T12:08:27.263Z,32.7
2018-08-20T12:09:28.725Z,32.7
2018-08-20T12:10:30.334Z,33.2
2018-08-20T12:11:31.936Z,33.7
2018-08-20T12:12:33.381Z,33.2
2018-08-20T12:13:34.837Z,32.7
2018-08-20T12:14:36.114Z,32.7
2018-08-20T12:15:37.734Z,33.2
2018-08-20T12:16:39.211Z,32.7
2018-08-20T12:17:40.818Z,33.2
2018-08-20T12:18:42.447Z,33.2
2018-08-20T12:19:43.776Z,33.2
2018-08-20T12:20:45.382Z,33.2
2018-08-20T12:21:46.649Z,32.7
2018-08-20T12:22:48.250Z,32.7
2018-08-20T12:23:49.876Z,32.7
2018-08-20T12:24:51.517Z,32.7
2018-08-20T12:25:53.160Z,32.7
2018-08-20T12:26:54.577Z,33.2
2018-08-20T12:27:56.186Z,32.7
2018-08-20T12:28:57.635Z,32.7
2018-08-20T12:29:59.096Z,33.2
2018-08-20T12:31:01.346Z,32.7
2018-08-20T12:32:03.261Z,32.3
2018-08-20T12:33:04.867Z,32.7
2018-08-20T12:34:06.306Z,33.2
2018-08-20T12:35:07.935Z,32.7
2018-08-20T12:36:09.412Z,31.8
2018-08-20T12:37:10.696Z,32.7
2018-08-20T12:38:11.989Z,32.7
2018-08-20T12:39:13.453Z,32.3
2018-08-20T12:40:15.639Z,31.8
2018-08-20T12:41:17.374Z,32.3
2018-08-20T12:42:18.811Z,32.7
2018-08-20T12:43:20.272Z,32.7
2018-08-20T12:44:21.897Z,32.3
2018-08-20T12:45:23.553Z,32.7
2018-08-20T12:46:24.679Z,32.7
2018-08-20T12:47:26.297Z,32.3
2018-08-20T12:48:27.943Z,31.8
2018-08-20T12:49:29.392Z,32.3
2018-08-20T12:50:30.853Z,32.3
2018-08-20T12:51:32.313Z,32.3
2018-08-20T12:52:33.778Z,32.7
2018-08-20T12:53:35.224Z,32.3
2018-08-20T12:54:36.842Z,32.3
2018-08-20T12:55:38.455Z,32.7
2018-08-20T12:56:39.896Z,31.8
2018-08-20T12:57:41.526Z,31.8
2018-08-20T12:58:43.146Z,32.3
2018-08-20T12:59:44.656Z,32.3
2018-08-20T13:00:46.079Z,32.7
2018-08-20T13:01:47.763Z,32.7
2018-08-20T13:02:49.374Z,32.3
2018-08-20T13:03:50.841Z,32.3
2018-08-20T13:04:52.444Z,32.3
2018-08-20T13:05:54.053Z,32.7
2018-08-20T13:06:55.665Z,32.3
2018-08-20T13:07:57.271Z,32.7
2018-08-20T13:08:59.573Z,31.3
2018-08-20T13:10:00.920Z,32.7
2018-08-20T13:11:02.346Z,31.8
2018-08-20T13:12:03.632Z,32.3
2018-08-20T13:13:05.072Z,32.3
2018-08-20T13:14:06.357Z,32.3
2018-08-20T13:15:07.969Z,32.3
2018-08-20T13:16:10.988Z,32.3
2018-08-20T13:17:13.060Z,32.3
2018-08-20T13:18:14.875Z,32.3
2018-08-20T13:19:16.678Z,32.3
2018-08-20T13:20:17.955Z,32.7
2018-08-20T13:21:19.581Z,32.7
2018-08-20T13:22:21.195Z,33.2
2018-08-20T13:23:22.797Z,33.7
2018-08-20T13:24:24.413Z,33.2
2018-08-20T13:25:25.878Z,33.2
2018-08-20T13:26:27.323Z,32.3
2018-08-20T13:27:28.941Z,32.7
2018-08-20T13:28:30.549Z,32.3
2018-08-20T13:29:32.162Z,32.7
2018-08-20T13:30:34.111Z,32.7
2018-08-20T13:31:35.614Z,32.7
2018-08-20T13:32:37.232Z,33.2
2018-08-20T13:33:38.859Z,33.7
2018-08-20T13:34:40.483Z,33.2
2018-08-20T13:35:41.959Z,33.2
2018-08-20T13:36:43.565Z,33.2
2018-08-20T13:37:45.188Z,33.2
2018-08-20T13:38:46.672Z,32.7
2018-08-20T13:39:47.956Z,32.7